Terminal Aerodrome Forecast
Issued by NWS Pocatello, ID

Home | Current Version | Previous Version | Text Only | Print | Product List | Glossary On
Versions: 1 2 3 4 5 6 7 8 9 10 11 12 13 14 15 16 17 18 19 20 21 22 23 24
000
FTUS45 KPIH 210203 AAB
TAFPIH
TAF AMD
KPIH 210203Z 2102/2124 18017G27KT P6SM -RA SCT020 OVC050
     FM210800 20025G35KT P6SM VCSH SCT030 BKN050
     FM212000 23028G38KT P6SM -SHRA VCTS SCT020 BKN040CB=

USA.gov is the U.S. government's official web portal to all federal, state and local government web resources and services.